Time;durP1;ratioP1;P1;durP2;ratioP2;P2;SDS_P1;SDS_P2;PMS_P1;PMS_P2;Temp;Humidity;BMP_temperature;BMP_pressure;BME280_temperature;BME280_humidity;BME280_pressure;Samples;Min_cycle;Max_cycle;Signal;HPM_P1;HPM_P2
2021/01/22 00:01:56;;;;;;;;;;;18.60;35.70;;;;;;481237;246;1325;-53
2021/01/22 00:03:55;;;;;;;;;;;18.70;35.70;;;;;;481182;248;1359;-54
2021/01/22 00:05:56;;;;;;;;;;;18.60;35.70;;;;;;481186;248;1044;-53
2021/01/22 00:07:58;;;;;;;;;;;18.70;35.70;;;;;;481164;248;1105;-54
2021/01/22 00:09:59;;;;;;;;;;;18.60;34.40;;;;;;481292;248;1047;-54
2021/01/22 00:12:00;;;;;;;;;;;18.60;34.40;;;;;;481150;248;1057;-54
2021/01/22 00:14:02;;;;;;;;;;;18.60;35.70;;;;;;481122;248;1177;-53
2021/01/22 00:16:03;;;;;;;;;;;18.60;35.70;;;;;;481242;248;1034;-53
2021/01/22 00:18:04;;;;;;;;;;;18.60;35.80;;;;;;481279;248;2193;-54
2021/01/22 00:20:05;;;;;;;;;;;18.60;35.70;;;;;;481231;248;985;-54
2021/01/22 00:22:07;;;;;;;;;;;18.60;35.80;;;;;;481289;248;1107;-54
2021/01/22 00:24:08;;;;;;;;;;;18.60;35.80;;;;;;481227;248;1055;-53
2021/01/22 00:26:09;;;;;;;;;;;18.60;35.80;;;;;;481207;248;1101;-54
2021/01/22 00:28:10;;;;;;;;;;;18.60;35.80;;;;;;481224;248;1103;-53
2021/01/22 00:30:12;;;;;;;;;;;18.60;35.80;;;;;;481211;248;1337;-54
2021/01/22 00:32:13;;;;;;;;;;;18.60;35.80;;;;;;481184;248;1105;-53
2021/01/22 00:34:14;;;;;;;;;;;18.60;35.80;;;;;;481132;248;1060;-54
2021/01/22 00:36:16;;;;;;;;;;;18.60;35.80;;;;;;481389;248;1082;-54
2021/01/22 00:38:17;;;;;;;;;;;18.60;35.80;;;;;;481295;248;2126;-54
2021/01/22 00:40:18;;;;;;;;;;;18.60;35.80;;;;;;481224;248;1035;-54
2021/01/22 00:42:19;;;;;;;;;;;18.60;35.80;;;;;;481151;248;1377;-53
2021/01/22 00:44:21;;;;;;;;;;;18.50;35.80;;;;;;481171;248;1201;-54
2021/01/22 00:46:22;;;;;;;;;;;18.60;35.90;;;;;;481223;248;1081;-54
2021/01/22 00:48:23;;;;;;;;;;;18.60;35.90;;;;;;481237;248;1198;-54
2021/01/22 00:50:24;;;;;;;;;;;18.60;35.90;;;;;;481247;248;1197;-54
2021/01/22 00:52:26;;;;;;;;;;;18.60;35.90;;;;;;481086;246;1194;-53
2021/01/22 00:54:27;;;;;;;;;;;18.50;35.80;;;;;;481201;248;2363;-54
2021/01/22 00:56:28;;;;;;;;;;;18.50;35.80;;;;;;481360;248;1045;-54
2021/01/22 00:58:30;;;;;;;;;;;18.60;35.90;;;;;;481146;248;2189;-53
2021/01/22 01:00:31;;;;;;;;;;;18.50;35.80;;;;;;481102;248;1127;-54
2021/01/22 01:02:32;;;;;;;;;;;18.60;35.80;;;;;;481118;248;1178;-54
2021/01/22 01:04:33;;;;;;;;;;;18.50;35.80;;;;;;481207;248;972;-53
2021/01/22 01:06:35;;;;;;;;;;;18.60;35.90;;;;;;481364;248;1275;-54
2021/01/22 01:08:36;;;;;;;;;;;18.50;35.80;;;;;;481195;248;1107;-54
2021/01/22 01:10:37;;;;;;;;;;;18.50;35.80;;;;;;481134;248;1143;-53
2021/01/22 01:12:38;;;;;;;;;;;18.60;35.90;;;;;;481106;248;1113;-53
2021/01/22 01:14:40;;;;;;;;;;;18.50;35.80;;;;;;481185;248;1201;-54
2021/01/22 01:16:41;;;;;;;;;;;18.50;35.80;;;;;;481227;248;1686;-53
2021/01/22 01:18:42;;;;;;;;;;;18.50;35.80;;;;;;481217;248;2142;-54
2021/01/22 01:20:44;;;;;;;;;;;18.50;35.80;;;;;;481150;248;1320;-53
2021/01/22 01:22:45;;;;;;;;;;;18.50;35.80;;;;;;481184;248;1050;-54
2021/01/22 01:24:46;;;;;;;;;;;18.50;35.80;;;;;;481404;248;1072;-53
2021/01/22 01:26:47;;;;;;;;;;;18.50;34.50;;;;;;481153;248;1165;-53
2021/01/22 01:28:49;;;;;;;;;;;18.50;35.80;;;;;;481178;248;1064;-54
2021/01/22 01:30:50;;;;;;;;;;;18.60;35.80;;;;;;481198;248;1266;-53
2021/01/22 01:32:51;;;;;;;;;;;18.60;35.90;;;;;;481180;248;1092;-54
2021/01/22 01:34:53;;;;;;;;;;;18.60;35.80;;;;;;481198;248;1238;-54
2021/01/22 01:36:54;;;;;;;;;;;18.60;35.80;;;;;;481159;248;1099;-54
2021/01/22 01:38:55;;;;;;;;;;;18.60;35.80;;;;;;481323;248;2197;-53
2021/01/22 01:40:56;;;;;;;;;;;18.50;35.80;;;;;;481397;248;1135;-53
2021/01/22 01:42:58;;;;;;;;;;;18.60;35.80;;;;;;481201;248;1333;-54
2021/01/22 01:44:59;;;;;;;;;;;18.60;35.80;;;;;;481150;248;1122;-54
2021/01/22 01:47:00;;;;;;;;;;;18.60;35.80;;;;;;481126;247;1327;-54
2021/01/22 01:49:02;;;;;;;;;;;18.60;35.80;;;;;;481420;248;1077;-54
2021/01/22 01:51:03;;;;;;;;;;;18.60;35.80;;;;;;481221;248;1148;-54
2021/01/22 01:53:04;;;;;;;;;;;18.60;35.80;;;;;;481224;248;1110;-54
2021/01/22 01:55:05;;;;;;;;;;;18.60;35.80;;;;;;481269;248;1166;-54
2021/01/22 01:57:07;;;;;;;;;;;18.60;35.80;;;;;;481275;248;1177;-53
2021/01/22 01:59:08;;;;;;;;;;;18.60;35.80;;;;;;481293;248;2197;-54
2021/01/22 02:01:09;;;;;;;;;;;18.60;35.80;;;;;;481169;248;1206;-53
2021/01/22 02:03:10;;;;;;;;;;;18.60;35.80;;;;;;481228;248;1086;-53
2021/01/22 02:05:12;;;;;;;;;;;18.60;35.80;;;;;;481323;248;1021;-53
2021/01/22 02:07:13;;;;;;;;;;;18.60;35.80;;;;;;481178;248;1338;-53
2021/01/22 02:09:14;;;;;;;;;;;18.60;35.70;;;;;;481305;248;1070;-53
2021/01/22 02:11:16;;;;;;;;;;;18.60;35.80;;;;;;481262;248;1506;-54
2021/01/22 02:13:17;;;;;;;;;;;18.60;35.80;;;;;;481307;248;1181;-53
2021/01/22 02:15:18;;;;;;;;;;;18.60;35.70;;;;;;481440;248;1101;-53
2021/01/22 02:17:19;;;;;;;;;;;18.60;35.70;;;;;;481234;248;1200;-53
2021/01/22 02:19:21;;;;;;;;;;;18.60;35.70;;;;;;481234;248;2194;-54
2021/01/22 02:21:22;;;;;;;;;;;18.60;35.70;;;;;;481159;248;991;-54
2021/01/22 02:23:23;;;;;;;;;;;18.60;35.70;;;;;;481348;248;1318;-54
2021/01/22 02:25:24;;;;;;;;;;;18.60;35.70;;;;;;481149;248;1100;-53
2021/01/22 02:27:26;;;;;;;;;;;18.60;35.70;;;;;;481186;248;1259;-53
2021/01/22 02:29:27;;;;;;;;;;;18.60;35.70;;;;;;481168;248;1193;-54
2021/01/22 02:31:28;;;;;;;;;;;18.60;35.70;;;;;;481172;248;1192;-54
2021/01/22 02:33:30;;;;;;;;;;;18.60;35.70;;;;;;481205;248;1038;-54
2021/01/22 02:35:31;;;;;;;;;;;18.60;35.70;;;;;;481239;248;955;-54
2021/01/22 02:37:32;;;;;;;;;;;18.60;35.70;;;;;;481290;248;1164;-53
2021/01/22 02:39:33;;;;;;;;;;;18.60;35.70;;;;;;481154;248;2197;-54
2021/01/22 02:41:35;;;;;;;;;;;18.60;35.70;;;;;;481353;248;1011;-54
2021/01/22 02:43:36;;;;;;;;;;;18.60;34.30;;;;;;481147;248;1423;-53
2021/01/22 02:45:37;;;;;;;;;;;18.60;35.60;;;;;;481148;248;1101;-53
2021/01/22 02:47:38;;;;;;;;;;;18.60;35.60;;;;;;481145;248;1221;-54
2021/01/22 02:49:40;;;;;;;;;;;18.60;35.70;;;;;;481242;248;1151;-53
2021/01/22 02:51:41;;;;;;;;;;;18.60;35.60;;;;;;481177;248;1076;-54
2021/01/22 02:53:42;;;;;;;;;;;18.60;35.60;;;;;;481170;248;1242;-54
2021/01/22 02:55:44;;;;;;;;;;;18.60;35.60;;;;;;481154;248;1106;-54
2021/01/22 02:57:45;;;;;;;;;;;18.60;35.60;;;;;;481134;248;1136;-54
2021/01/22 02:59:46;;;;;;;;;;;18.70;35.70;;;;;;481214;248;2247;-54
2021/01/22 03:01:47;;;;;;;;;;;18.70;35.70;;;;;;481213;248;1191;-53
2021/01/22 03:03:49;;;;;;;;;;;18.70;35.70;;;;;;481217;248;1354;-54
2021/01/22 03:05:50;;;;;;;;;;;18.60;35.60;;;;;;481222;248;1402;-54
2021/01/22 03:07:51;;;;;;;;;;;18.70;35.60;;;;;;481279;248;1144;-54
2021/01/22 03:09:53;;;;;;;;;;;18.60;35.60;;;;;;481264;248;1123;-54
2021/01/22 03:11:54;;;;;;;;;;;18.70;35.60;;;;;;481223;248;1318;-54
2021/01/22 03:13:55;;;;;;;;;;;18.70;35.60;;;;;;481171;248;1063;-54
2021/01/22 03:15:56;;;;;;;;;;;18.70;35.70;;;;;;481168;248;1050;-54
2021/01/22 03:17:58;;;;;;;;;;;18.70;35.70;;;;;;481209;248;1265;-53
2021/01/22 03:19:59;;;;;;;;;;;18.70;34.30;;;;;;481292;248;2197;-53
2021/01/22 03:22:00;;;;;;;;;;;18.70;35.60;;;;;;481204;248;1316;-53
2021/01/22 03:24:01;;;;;;;;;;;18.70;35.70;;;;;;481428;248;1036;-54
2021/01/22 03:26:03;;;;;;;;;;;18.70;35.60;;;;;;481194;248;1134;-54
2021/01/22 03:28:04;;;;;;;;;;;18.70;35.60;;;;;;481208;248;1117;-53
2021/01/22 03:30:05;;;;;;;;;;;18.70;35.60;;;;;;481182;248;1085;-53
2021/01/22 03:32:07;;;;;;;;;;;18.70;35.60;;;;;;481160;245;1245;-54
2021/01/22 03:34:08;;;;;;;;;;;18.70;35.60;;;;;;481228;248;1049;-53
2021/01/22 03:36:09;;;;;;;;;;;18.70;35.60;;;;;;481280;248;972;-54
2021/01/22 03:38:10;;;;;;;;;;;18.70;35.60;;;;;;481223;248;1046;-54
2021/01/22 03:40:12;;;;;;;;;;;18.70;35.60;;;;;;481397;248;2138;-53
2021/01/22 03:42:13;;;;;;;;;;;18.70;35.60;;;;;;481264;248;1036;-53
2021/01/22 03:44:14;;;;;;;;;;;18.70;35.60;;;;;;481348;248;1052;-54
2021/01/22 03:46:15;;;;;;;;;;;18.70;35.60;;;;;;481159;248;1095;-53
2021/01/22 03:48:17;;;;;;;;;;;18.70;35.60;;;;;;481216;245;1381;-53
2021/01/22 03:50:18;;;;;;;;;;;18.70;35.60;;;;;;481427;248;1200;-53
2021/01/22 03:52:19;;;;;;;;;;;18.70;35.70;;;;;;481193;248;1204;-54
2021/01/22 03:54:21;;;;;;;;;;;18.60;35.60;;;;;;481289;248;1112;-53
2021/01/22 03:56:22;;;;;;;;;;;18.70;35.70;;;;;;481211;248;1178;-54
2021/01/22 03:58:23;;;;;;;;;;;18.70;35.70;;;;;;481306;248;1077;-54
2021/01/22 04:00:24;;;;;;;;;;;18.70;35.60;;;;;;481189;248;2135;-53
2021/01/22 04:02:26;;;;;;;;;;;18.70;35.60;;;;;;481168;248;1219;-53
2021/01/22 04:04:27;;;;;;;;;;;18.70;34.30;;;;;;481270;248;1095;-53
2021/01/22 04:06:28;;;;;;;;;;;18.70;35.70;;;;;;481192;248;1088;-54
2021/01/22 04:08:30;;;;;;;;;;;18.70;34.30;;;;;;481305;248;1155;-53
2021/01/22 04:10:31;;;;;;;;;;;18.70;35.60;;;;;;481154;248;1243;-54
2021/01/22 04:12:33;;;;;;;;;;;18.70;35.60;;;;;;481216;248;1161;-54
2021/01/22 04:14:33;;;;;;;;;;;18.70;35.60;;;;;;481137;248;1523;-54
2021/01/22 04:16:35;;;;;;;;;;;18.70;35.60;;;;;;481265;248;1218;-53
2021/01/22 04:18:36;;;;;;;;;;;18.70;35.60;;;;;;481246;248;1194;-54
2021/01/22 04:20:37;;;;;;;;;;;18.70;35.50;;;;;;481211;248;2122;-53
2021/01/22 04:22:38;;;;;;;;;;;18.70;35.60;;;;;;481146;248;1063;-54
2021/01/22 04:24:40;;;;;;;;;;;18.70;35.60;;;;;;481432;248;1185;-54
2021/01/22 04:26:41;;;;;;;;;;;18.70;35.50;;;;;;481207;248;1169;-53
2021/01/22 04:28:42;;;;;;;;;;;18.70;35.50;;;;;;481172;248;1050;-53
2021/01/22 04:30:45;;;;;;;;;;;18.70;35.50;;;;;;481124;248;1117;-54
2021/01/22 04:32:46;;;;;;;;;;;18.70;35.50;;;;;;481193;248;1235;-53
2021/01/22 04:34:48;;;;;;;;;;;18.80;35.60;;;;;;481377;248;1096;-54
2021/01/22 04:36:49;;;;;;;;;;;18.80;35.50;;;;;;481288;248;1076;-53
2021/01/22 04:38:50;;;;;;;;;;;18.80;35.50;;;;;;481216;248;2138;-54
2021/01/22 04:40:51;;;;;;;;;;;18.80;35.50;;;;;;481131;248;1064;-54
2021/01/22 04:42:53;;;;;;;;;;;18.80;35.50;;;;;;481111;248;1155;-54
2021/01/22 04:44:54;;;;;;;;;;;18.80;35.50;;;;;;481234;248;1155;-54
2021/01/22 04:46:55;;;;;;;;;;;18.80;35.50;;;;;;481140;248;1258;-53
2021/01/22 04:48:56;;;;;;;;;;;18.80;35.50;;;;;;481214;248;1180;-54
2021/01/22 04:50:58;;;;;;;;;;;18.80;35.40;;;;;;481256;248;1399;-53
2021/01/22 04:52:59;;;;;;;;;;;18.80;35.40;;;;;;481199;248;1059;-54
2021/01/22 04:55:00;;;;;;;;;;;18.80;34.10;;;;;;481168;248;1120;-54
2021/01/22 04:57:02;;;;;;;;;;;18.80;35.40;;;;;;481199;248;1223;-54
2021/01/22 04:59:03;;;;;;;;;;;18.80;35.40;;;;;;481295;248;2149;-54
2021/01/22 05:01:04;;;;;;;;;;;18.80;35.40;;;;;;481187;248;1291;-54
2021/01/22 05:03:05;;;;;;;;;;;18.80;35.40;;;;;;481266;248;1206;-53
2021/01/22 05:05:07;;;;;;;;;;;18.80;35.30;;;;;;481220;248;1351;-54
2021/01/22 05:07:08;;;;;;;;;;;18.90;35.40;;;;;;481201;248;990;-53
2021/01/22 05:09:09;;;;;;;;;;;18.90;35.40;;;;;;481244;248;1071;-54
2021/01/22 05:11:11;;;;;;;;;;;18.90;35.40;;;;;;481339;248;1211;-54
2021/01/22 05:13:12;;;;;;;;;;;18.90;35.30;;;;;;481228;248;1037;-53
2021/01/22 05:15:13;;;;;;;;;;;18.90;35.30;;;;;;481180;248;1048;-54
2021/01/22 05:17:14;;;;;;;;;;;18.90;35.30;;;;;;481232;248;1107;-53
2021/01/22 05:19:16;;;;;;;;;;;18.90;35.30;;;;;;481188;248;2178;-53
2021/01/22 05:21:18;;;;;;;;;;;18.90;34.00;;;;;;481241;248;982;-54
2021/01/22 05:23:19;;;;;;;;;;;18.90;35.30;;;;;;481112;248;2094;-53
2021/01/22 05:25:20;;;;;;;;;;;18.90;35.30;;;;;;481116;248;985;-54
2021/01/22 05:27:21;;;;;;;;;;;18.90;35.30;;;;;;481066;248;1211;-53
2021/01/22 05:29:23;;;;;;;;;;;18.90;35.30;;;;;;481278;248;1077;-54
2021/01/22 05:31:24;;;;;;;;;;;18.90;35.30;;;;;;481100;248;1035;-54
2021/01/22 05:33:26;;;;;;;;;;;18.90;35.30;;;;;;481070;248;1184;-53
2021/01/22 05:35:26;;;;;;;;;;;18.90;35.30;;;;;;481095;248;1053;-54
2021/01/22 05:37:28;;;;;;;;;;;18.90;35.20;;;;;;481129;248;1057;-54
2021/01/22 05:39:29;;;;;;;;;;;18.90;35.20;;;;;;481056;248;2138;-54
2021/01/22 05:41:30;;;;;;;;;;;18.90;35.20;;;;;;481137;248;1074;-53
2021/01/22 05:43:31;;;;;;;;;;;18.90;35.20;;;;;;481104;248;1067;-54
2021/01/22 05:45:33;;;;;;;;;;;18.90;35.20;;;;;;481099;248;1257;-54
2021/01/22 05:47:34;;;;;;;;;;;18.90;35.20;;;;;;481180;248;1203;-54
2021/01/22 05:49:35;;;;;;;;;;;18.90;35.30;;;;;;481035;248;1323;-54
2021/01/22 05:51:37;;;;;;;;;;;19.00;35.30;;;;;;481245;248;1073;-54
2021/01/22 05:53:38;;;;;;;;;;;19.00;35.30;;;;;;481052;248;1183;-53
2021/01/22 05:55:39;;;;;;;;;;;19.00;35.20;;;;;;480966;248;1181;-54
2021/01/22 05:57:41;;;;;;;;;;;19.00;35.20;;;;;;481003;248;1646;-53
2021/01/22 05:59:42;;;;;;;;;;;19.00;35.30;;;;;;481000;248;2258;-54
2021/01/22 06:01:43;;;;;;;;;;;19.00;35.20;;;;;;480959;248;1045;-54
2021/01/22 06:03:45;;;;;;;;;;;19.00;35.30;;;;;;480912;248;1274;-53
2021/01/22 06:05:46;;;;;;;;;;;19.00;35.30;;;;;;480939;248;1208;-54
2021/01/22 06:07:47;;;;;;;;;;;19.00;35.20;;;;;;481037;248;1034;-53
2021/01/22 06:09:48;;;;;;;;;;;19.00;35.30;;;;;;481182;248;1126;-53
2021/01/22 06:11:49;;;;;;;;;;;19.00;35.30;;;;;;480989;248;1161;-53
2021/01/22 06:13:51;;;;;;;;;;;19.00;35.30;;;;;;480993;248;1320;-53
2021/01/22 06:15:52;;;;;;;;;;;19.00;35.20;;;;;;480893;248;1285;-53
2021/01/22 06:17:53;;;;;;;;;;;19.00;35.20;;;;;;480927;248;1250;-54
2021/01/22 06:19:55;;;;;;;;;;;19.00;35.20;;;;;;480934;248;2201;-54
2021/01/22 06:21:56;;;;;;;;;;;19.00;35.20;;;;;;480924;248;1246;-54
2021/01/22 06:23:57;;;;;;;;;;;19.00;35.20;;;;;;480973;248;1182;-53
2021/01/22 06:25:58;;;;;;;;;;;19.00;35.20;;;;;;480874;248;1181;-53
2021/01/22 06:28:00;;;;;;;;;;;19.00;35.20;;;;;;480880;248;1060;-53
2021/01/22 06:30:01;;;;;;;;;;;19.00;35.20;;;;;;480881;248;1351;-53
2021/01/22 06:32:02;;;;;;;;;;;19.00;35.30;;;;;;481004;248;1047;-53
2021/01/22 06:34:03;;;;;;;;;;;18.90;35.20;;;;;;481024;248;1199;-53
2021/01/22 06:36:05;;;;;;;;;;;19.00;35.30;;;;;;480931;248;1057;-54
2021/01/22 06:38:07;;;;;;;;;;;19.00;35.30;;;;;;481005;248;1153;-53
2021/01/22 06:40:08;;;;;;;;;;;19.00;35.30;;;;;;481003;248;2309;-54
2021/01/22 06:42:09;;;;;;;;;;;19.00;35.30;;;;;;480966;248;1073;-54
2021/01/22 06:44:11;;;;;;;;;;;19.00;35.30;;;;;;480989;248;1163;-53
2021/01/22 06:46:12;;;;;;;;;;;19.00;35.30;;;;;;480951;248;1030;-54
2021/01/22 06:48:13;;;;;;;;;;;18.90;35.30;;;;;;480832;248;1067;-54
2021/01/22 06:50:15;;;;;;;;;;;18.90;35.30;;;;;;480932;248;1212;-53
2021/01/22 06:52:16;;;;;;;;;;;18.90;35.30;;;;;;480946;246;1307;-53
2021/01/22 06:54:19;;;;;;;;;;;19.00;35.30;;;;;;480832;248;1040;-54
2021/01/22 06:56:18;;;;;;;;;;;18.90;35.30;;;;;;480895;248;2154;-53
2021/01/22 06:58:20;;;;;;;;;;;19.00;35.30;;;;;;480856;248;1216;-54
2021/01/22 07:00:21;;;;;;;;;;;18.90;35.30;;;;;;480933;248;2194;-53
2021/01/22 07:02:22;;;;;;;;;;;18.90;35.30;;;;;;480823;248;1232;-54
2021/01/22 07:04:23;;;;;;;;;;;18.90;35.30;;;;;;480848;248;1192;-54
2021/01/22 07:06:25;;;;;;;;;;;18.90;35.30;;;;;;480748;248;1107;-53
2021/01/22 07:08:26;;;;;;;;;;;18.90;35.30;;;;;;480699;248;1124;-54
2021/01/22 07:10:27;;;;;;;;;;;18.90;35.30;;;;;;480822;248;1066;-54
2021/01/22 07:12:29;;;;;;;;;;;18.90;35.30;;;;;;480891;248;1228;-53
2021/01/22 07:14:30;;;;;;;;;;;18.90;35.30;;;;;;480814;248;1086;-54
2021/01/22 07:16:31;;;;;;;;;;;18.90;35.30;;;;;;480736;248;1055;-53
2021/01/22 07:18:32;;;;;;;;;;;18.90;35.40;;;;;;480772;248;1082;-53
2021/01/22 07:20:34;;;;;;;;;;;18.90;35.40;;;;;;480606;248;2189;-53
2021/01/22 07:22:35;;;;;;;;;;;18.90;35.30;;;;;;480708;248;1156;-53
2021/01/22 07:24:36;;;;;;;;;;;18.90;35.30;;;;;;480701;248;1074;-54
2021/01/22 07:26:37;;;;;;;;;;;18.90;35.40;;;;;;480767;248;1078;-54
2021/01/22 07:28:39;;;;;;;;;;;18.90;35.40;;;;;;480786;248;1093;-54
2021/01/22 07:30:40;;;;;;;;;;;18.90;35.40;;;;;;480849;248;1104;-54
2021/01/22 07:32:41;;;;;;;;;;;18.90;35.40;;;;;;480757;248;1143;-53
2021/01/22 07:34:43;;;;;;;;;;;18.90;35.40;;;;;;480724;248;1163;-53
2021/01/22 07:36:44;;;;;;;;;;;18.90;35.40;;;;;;480755;248;1336;-53
2021/01/22 07:38:45;;;;;;;;;;;18.90;35.40;;;;;;480797;248;1070;-53
2021/01/22 07:40:47;;;;;;;;;;;18.90;34.10;;;;;;480768;248;2193;-54
2021/01/22 07:42:48;;;;;;;;;;;18.90;35.40;;;;;;480705;248;1224;-53
2021/01/22 07:44:49;;;;;;;;;;;18.90;35.40;;;;;;480730;248;1073;-54
2021/01/22 07:46:51;;;;;;;;;;;18.90;35.40;;;;;;480703;248;1332;-53
2021/01/22 07:48:52;;;;;;;;;;;18.90;35.40;;;;;;480801;248;1199;-54
2021/01/22 07:50:53;;;;;;;;;;;18.90;35.40;;;;;;480773;248;1196;-53
2021/01/22 07:52:54;;;;;;;;;;;18.90;35.40;;;;;;480686;248;1214;-53
2021/01/22 07:54:56;;;;;;;;;;;18.90;35.40;;;;;;480771;248;1313;-54
2021/01/22 07:56:57;;;;;;;;;;;18.90;35.40;;;;;;480598;248;1100;-53
2021/01/22 07:58:58;;;;;;;;;;;18.90;34.10;;;;;;480611;248;1060;-54
2021/01/22 08:00:59;;;;;;;;;;;18.90;35.40;;;;;;480691;248;2142;-54
2021/01/22 08:03:01;;;;;;;;;;;18.90;34.10;;;;;;480693;248;1083;-54
2021/01/22 08:05:02;;;;;;;;;;;18.90;35.40;;;;;;480703;248;1212;-53
2021/01/22 08:07:03;;;;;;;;;;;18.90;34.10;;;;;;480604;248;1086;-54
2021/01/22 08:09:05;;;;;;;;;;;18.90;35.40;;;;;;480702;248;1115;-53
2021/01/22 08:11:06;;;;;;;;;;;18.90;35.40;;;;;;480670;248;1104;-54
2021/01/22 08:13:07;;;;;;;;;;;18.90;35.40;;;;;;480654;248;1057;-54
2021/01/22 08:15:09;;;;;;;;;;;18.90;35.40;;;;;;480607;248;1036;-54
2021/01/22 08:17:10;;;;;;;;;;;18.90;35.30;;;;;;480574;248;1132;-54
2021/01/22 08:19:11;;;;;;;;;;;18.90;35.30;;;;;;480637;248;1387;-54
2021/01/22 08:21:12;;;;;;;;;;;18.90;35.40;;;;;;480587;248;2201;-54
2021/01/22 08:23:14;;;;;;;;;;;18.90;35.40;;;;;;480602;248;1071;-53
2021/01/22 08:25:15;;;;;;;;;;;18.90;35.30;;;;;;480491;248;1089;-53
2021/01/22 08:27:16;;;;;;;;;;;18.90;35.30;;;;;;480514;248;1061;-53
2021/01/22 08:29:17;;;;;;;;;;;19.00;35.40;;;;;;480614;248;1078;-53
2021/01/22 08:31:19;;;;;;;;;;;18.90;35.30;;;;;;480549;248;1093;-53
2021/01/22 08:33:20;;;;;;;;;;;18.90;35.30;;;;;;480546;248;1174;-54
2021/01/22 08:35:22;;;;;;;;;;;19.00;35.40;;;;;;480538;248;1213;-54
2021/01/22 08:37:23;;;;;;;;;;;19.00;35.40;;;;;;480392;248;1075;-54
2021/01/22 08:39:24;;;;;;;;;;;19.00;35.40;;;;;;480483;248;1107;-53
2021/01/22 08:41:25;;;;;;;;;;;19.00;34.00;;;;;;480436;248;2163;-54
2021/01/22 08:43:27;;;;;;;;;;;19.00;35.30;;;;;;480391;248;1520;-54
2021/01/22 08:45:28;;;;;;;;;;;19.00;33.90;;;;;;480430;248;1064;-53
2021/01/22 08:47:30;;;;;;;;;;;19.00;35.30;;;;;;480533;248;1098;-54
2021/01/22 08:49:31;;;;;;;;;;;19.00;35.30;;;;;;480526;248;1053;-54
2021/01/22 08:51:37;;;;;;;;;;;19.00;35.20;;;;;;480537;248;1214;-54
2021/01/22 08:53:34;;;;;;;;;;;19.00;33.90;;;;;;480539;248;1400;-53
2021/01/22 08:55:35;;;;;;;;;;;19.10;33.90;;;;;;480674;248;1187;-54
2021/01/22 08:57:36;;;;;;;;;;;19.00;33.80;;;;;;480633;248;1050;-53
2021/01/22 08:59:37;;;;;;;;;;;19.00;35.20;;;;;;480516;248;1144;-54
2021/01/22 09:01:39;;;;;;;;;;;19.10;35.20;;;;;;480636;248;2185;-54
2021/01/22 09:03:40;;;;;;;;;;;19.00;33.90;;;;;;480571;248;1128;-54
2021/01/22 09:05:41;;;;;;;;;;;19.00;35.20;;;;;;480680;246;1402;-53
2021/01/22 09:07:43;;;;;;;;;;;19.00;35.30;;;;;;480633;248;1111;-53
2021/01/22 09:09:45;;;;;;;;;;;19.00;35.30;;;;;;480581;248;1067;-53
2021/01/22 09:11:46;;;;;;;;;;;19.00;35.40;;;;;;480581;248;2393;-53
2021/01/22 09:13:47;;;;;;;;;;;18.90;35.40;;;;;;480488;248;1491;-53
2021/01/22 09:15:49;;;;;;;;;;;18.90;35.50;;;;;;480561;248;1095;-53
2021/01/22 09:17:50;;;;;;;;;;;18.90;35.60;;;;;;480606;248;2093;-54
2021/01/22 09:19:51;;;;;;;;;;;18.80;35.60;;;;;;480590;248;1178;-54
2021/01/22 09:21:52;;;;;;;;;;;18.80;35.60;;;;;;480440;248;2134;-54
2021/01/22 09:23:53;;;;;;;;;;;18.70;34.40;;;;;;480425;248;1224;-54
2021/01/22 09:25:55;;;;;;;;;;;18.70;35.70;;;;;;480476;248;1058;-53
2021/01/22 09:27:57;;;;;;;;;;;18.70;35.80;;;;;;480443;248;1037;-53
2021/01/22 09:29:58;;;;;;;;;;;18.60;35.80;;;;;;480428;248;1358;-53
2021/01/22 09:31:59;;;;;;;;;;;18.60;35.90;;;;;;480593;248;1063;-53
2021/01/22 09:34:01;;;;;;;;;;;18.60;35.90;;;;;;480678;248;1199;-53
2021/01/22 09:36:02;;;;;;;;;;;18.60;36.00;;;;;;480622;248;1181;-53
2021/01/22 09:38:03;;;;;;;;;;;18.50;36.00;;;;;;480639;248;1219;-53
2021/01/22 09:40:04;;;;;;;;;;;18.50;36.10;;;;;;480666;248;1122;-54
2021/01/22 09:42:06;;;;;;;;;;;18.50;36.10;;;;;;480693;248;2238;-54
2021/01/22 09:44:07;;;;;;;;;;;18.50;36.20;;;;;;480656;248;1061;-53
2021/01/22 09:46:08;;;;;;;;;;;18.40;36.20;;;;;;480628;248;1080;-53
2021/01/22 09:48:10;;;;;;;;;;;18.40;36.20;;;;;;480579;248;1084;-54
2021/01/22 09:50:11;;;;;;;;;;;18.40;36.20;;;;;;480607;248;1082;-53
2021/01/22 09:52:12;;;;;;;;;;;18.40;36.30;;;;;;480605;248;1182;-53
2021/01/22 09:54:13;;;;;;;;;;;18.40;36.20;;;;;;480509;248;1092;-53
2021/01/22 09:56:15;;;;;;;;;;;18.50;34.90;;;;;;480543;248;1076;-53
2021/01/22 09:58:16;;;;;;;;;;;18.50;34.90;;;;;;480436;248;1111;-54
2021/01/22 10:00:17;;;;;;;;;;;18.50;36.20;;;;;;480330;248;1104;-53
2021/01/22 10:02:18;;;;;;;;;;;18.50;36.20;;;;;;480528;248;2189;-53
2021/01/22 10:04:20;;;;;;;;;;;18.50;36.20;;;;;;480489;247;1255;-53
2021/01/22 10:06:21;;;;;;;;;;;18.50;36.10;;;;;;480405;248;1195;-54
2021/01/22 10:08:22;;;;;;;;;;;18.50;36.10;;;;;;480427;248;1110;-53
2021/01/22 10:10:24;;;;;;;;;;;18.50;36.10;;;;;;480438;248;1064;-52
2021/01/22 10:12:25;;;;;;;;;;;18.50;34.80;;;;;;480636;248;1199;-54
2021/01/22 10:14:26;;;;;;;;;;;18.50;36.10;;;;;;480517;248;1244;-54
2021/01/22 10:16:27;;;;;;;;;;;18.60;36.10;;;;;;480569;248;1088;-54
2021/01/22 10:18:29;;;;;;;;;;;18.60;36.10;;;;;;480544;248;1258;-53
2021/01/22 10:20:30;;;;;;;;;;;18.60;36.00;;;;;;480411;248;1171;-54
2021/01/22 10:22:31;;;;;;;;;;;18.60;34.70;;;;;;480419;248;2190;-54
2021/01/22 10:24:33;;;;;;;;;;;18.60;34.70;;;;;;480287;248;1208;-54
2021/01/22 10:26:34;;;;;;;;;;;18.60;34.70;;;;;;480532;248;1054;-54
2021/01/22 10:28:35;;;;;;;;;;;18.60;36.00;;;;;;480532;248;1387;-54
2021/01/22 10:30:36;;;;;;;;;;;18.70;36.00;;;;;;480532;248;1034;-53
2021/01/22 10:32:38;;;;;;;;;;;18.70;34.70;;;;;;480494;248;1122;-54
2021/01/22 10:34:39;;;;;;;;;;;18.70;35.90;;;;;;480581;248;1032;-54
2021/01/22 10:36:40;;;;;;;;;;;18.80;36.00;;;;;;480560;248;1180;-53
2021/01/22 10:38:42;;;;;;;;;;;18.70;34.60;;;;;;480556;248;1047;-54
2021/01/22 10:40:43;;;;;;;;;;;18.70;35.90;;;;;;480583;248;1177;-53
2021/01/22 10:42:44;;;;;;;;;;;18.70;35.90;;;;;;480613;248;2200;-53
2021/01/22 10:44:45;;;;;;;;;;;18.70;34.60;;;;;;480684;248;1066;-53
2021/01/22 10:46:47;;;;;;;;;;;18.80;35.90;;;;;;480486;248;1044;-54
2021/01/22 10:48:48;;;;;;;;;;;18.80;35.90;;;;;;480424;248;1078;-53
2021/01/22 10:50:50;;;;;;;;;;;18.80;35.90;;;;;;480343;248;1025;-54
2021/01/22 10:52:50;;;;;;;;;;;18.80;35.80;;;;;;480381;248;2294;-54
2021/01/22 10:54:52;;;;;;;;;;;18.80;35.80;;;;;;480422;248;1179;-54
2021/01/22 10:56:53;;;;;;;;;;;18.80;35.80;;;;;;480446;248;1431;-53
2021/01/22 10:58:54;;;;;;;;;;;18.80;35.80;;;;;;480523;248;1101;-54
2021/01/22 11:00:55;;;;;;;;;;;18.80;34.50;;;;;;480585;248;2180;-53
2021/01/22 11:02:57;;;;;;;;;;;18.80;35.80;;;;;;480570;248;1092;-54
2021/01/22 11:04:58;;;;;;;;;;;18.90;35.80;;;;;;480566;248;1114;-53
2021/01/22 11:06:59;;;;;;;;;;;18.90;35.80;;;;;;480469;248;1195;-54
2021/01/22 11:09:01;;;;;;;;;;;18.90;35.80;;;;;;480583;248;1056;-54
2021/01/22 11:11:02;;;;;;;;;;;18.90;35.80;;;;;;480634;248;1062;-53
2021/01/22 11:13:04;;;;;;;;;;;18.90;35.70;;;;;;480599;248;1165;-53
2021/01/22 11:15:06;;;;;;;;;;;18.90;35.80;;;;;;480613;248;1057;-54
2021/01/22 11:17:07;;;;;;;;;;;18.90;35.70;;;;;;480414;248;1527;-54
2021/01/22 11:19:08;;;;;;;;;;;18.90;35.70;;;;;;480649;248;1081;-53
2021/01/22 11:21:09;;;;;;;;;;;19.00;35.80;;;;;;480507;248;2149;-54
2021/01/22 11:23:11;;;;;;;;;;;19.00;34.40;;;;;;480460;248;1274;-54
2021/01/22 11:25:13;;;;;;;;;;;19.00;35.80;;;;;;480510;245;2158;-54
2021/01/22 11:27:14;;;;;;;;;;;19.00;35.80;;;;;;480649;248;1115;-53
2021/01/22 11:29:15;;;;;;;;;;;19.00;34.40;;;;;;480638;248;1057;-54
2021/01/22 11:31:17;;;;;;;;;;;19.00;35.80;;;;;;480531;248;1201;-54
2021/01/22 11:33:18;;;;;;;;;;;19.00;35.70;;;;;;480506;248;1058;-54
2021/01/22 11:35:19;;;;;;;;;;;19.00;34.40;;;;;;480411;245;1195;-53
2021/01/22 11:37:20;;;;;;;;;;;19.00;35.70;;;;;;480565;248;1308;-54
2021/01/22 11:39:22;;;;;;;;;;;19.00;35.70;;;;;;480633;248;1069;-53
2021/01/22 11:41:23;;;;;;;;;;;19.00;35.70;;;;;;480509;248;2202;-54
2021/01/22 11:43:24;;;;;;;;;;;19.00;35.70;;;;;;480470;248;1159;-54
2021/01/22 11:45:25;;;;;;;;;;;19.00;35.60;;;;;;480528;248;1261;-53
2021/01/22 11:47:27;;;;;;;;;;;19.00;35.60;;;;;;480591;248;1056;-54
2021/01/22 11:49:28;;;;;;;;;;;19.10;35.70;;;;;;480677;248;1087;-53
2021/01/22 11:51:29;;;;;;;;;;;19.10;35.70;;;;;;480721;248;1193;-53
2021/01/22 11:53:30;;;;;;;;;;;19.10;35.70;;;;;;480678;248;1253;-53
2021/01/22 11:55:32;;;;;;;;;;;19.10;34.30;;;;;;480693;248;1051;-54
2021/01/22 11:57:33;;;;;;;;;;;19.10;35.60;;;;;;480514;248;1063;-54